createdAt,value
2022-12-14T00:02:10.766Z,17.38
2022-12-14T00:04:38.842Z,17.48
2022-12-14T00:07:05.838Z,17.48
2022-12-14T00:09:38.258Z,17.20
2022-12-14T00:12:08.470Z,17.67
2022-12-14T00:14:35.567Z,17.10
2022-12-14T00:17:03.487Z,15.63
2022-12-14T00:19:31.376Z,16.77
2022-12-14T00:21:58.319Z,17.38
2022-12-14T00:24:25.630Z,16.67
2022-12-14T00:26:53.613Z,16.08
2022-12-14T00:29:21.443Z,16.08
2022-12-14T00:31:49.729Z,16.42
2022-12-14T00:34:17.766Z,15.90
2022-12-14T00:36:45.004Z,16.30
2022-12-14T00:39:12.975Z,16.45
2022-12-14T00:41:40.305Z,16.40
2022-12-14T00:44:07.240Z,16.95
2022-12-14T00:46:34.396Z,16.63
2022-12-14T00:49:02.347Z,16.35
2022-12-14T00:51:29.430Z,17.02
2022-12-14T00:53:58.373Z,15.98
2022-12-14T00:56:25.435Z,16.50
2022-12-14T00:58:53.551Z,16.30
2022-12-14T01:01:21.785Z,15.35
2022-12-14T01:03:49.623Z,15.27
2022-12-14T01:06:22.128Z,16.73
2022-12-14T01:08:49.751Z,15.45
2022-12-14T01:11:18.624Z,15.90
2022-12-14T01:13:49.164Z,16.45
2022-12-14T01:16:20.258Z,15.98
2022-12-14T01:18:49.191Z,16.15
2022-12-14T01:21:22.343Z,17.48
2022-12-14T01:23:58.761Z,16.67
2022-12-14T01:26:27.306Z,17.48
2022-12-14T01:28:57.833Z,16.75
2022-12-14T01:31:28.407Z,16.80
2022-12-14T01:33:57.635Z,15.93
2022-12-14T01:36:31.396Z,16.63
2022-12-14T01:39:09.555Z,16.70
2022-12-14T01:41:41.395Z,16.20
2022-12-14T01:44:08.196Z,16.63
2022-12-14T01:46:38.601Z,16.45
2022-12-14T01:49:23.278Z,16.23
2022-12-14T01:52:16.330Z,16.45
2022-12-14T01:57:46.291Z,15.50
2022-12-14T02:00:14.031Z,16.45
2022-12-14T02:02:56.035Z,16.17
2022-12-14T02:05:25.148Z,16.38
2022-12-14T02:07:54.669Z,16.10
2022-12-14T02:10:24.891Z,15.90
2022-12-14T02:13:00.575Z,15.70
2022-12-14T02:15:28.704Z,16.25
2022-12-14T02:17:59.806Z,15.93
2022-12-14T02:20:32.027Z,16.45
2022-12-14T02:23:20.666Z,16.25
2022-12-14T02:25:53.550Z,16.02
2022-12-14T02:28:38.668Z,16.75
2022-12-14T02:31:26.259Z,16.45
2022-12-14T02:34:18.569Z,15.80
2022-12-14T02:37:05.834Z,16.15
2022-12-14T02:39:59.313Z,15.32
2022-12-14T02:45:12.369Z,15.35
2022-12-14T02:47:39.155Z,17.30
2022-12-14T02:50:22.443Z,15.98
2022-12-14T02:53:31.388Z,16.50
2022-12-14T02:56:05.388Z,15.70
2022-12-14T02:58:35.112Z,16.80
2022-12-14T03:01:02.739Z,15.57
2022-12-14T03:03:29.917Z,16.50
2022-12-14T03:06:04.245Z,15.80
2022-12-14T03:08:35.517Z,16.08
2022-12-14T03:11:06.234Z,16.65
2022-12-14T03:13:49.306Z,15.73
2022-12-14T03:16:29.750Z,16.40
2022-12-14T03:19:16.104Z,16.55
2022-12-14T03:22:20.842Z,16.70
2022-12-14T03:24:54.117Z,15.80
2022-12-14T03:27:30.509Z,15.50
2022-12-14T03:30:23.733Z,16.45
2022-12-14T03:33:07.589Z,15.68
2022-12-14T03:35:43.854Z,15.98
2022-12-14T03:38:30.997Z,15.68
2022-12-14T03:41:28.957Z,15.55
2022-12-14T03:44:36.985Z,14.63
2022-12-14T03:47:42.128Z,15.63
2022-12-14T03:50:17.442Z,16.17
2022-12-14T03:53:12.262Z,16.38
2022-12-14T03:55:39.111Z,16.02
2022-12-14T03:58:27.862Z,16.15
2022-12-14T04:01:18.714Z,16.92
2022-12-14T04:04:02.683Z,15.30
2022-12-14T04:06:49.798Z,15.25
2022-12-14T04:09:37.935Z,15.60
2022-12-14T04:12:38.551Z,14.60
2022-12-14T04:15:39.342Z,15.07
2022-12-14T04:18:32.318Z,14.40
2022-12-14T04:21:22.390Z,15.00
2022-12-14T04:24:14.197Z,14.63
2022-12-14T04:26:50.160Z,14.77
2022-12-14T04:29:44.205Z,15.15
2022-12-14T04:32:25.277Z,14.88
2022-12-14T04:35:00.967Z,15.27
2022-12-14T04:37:29.076Z,14.85
2022-12-14T04:40:10.636Z,13.65
2022-12-14T04:42:50.914Z,14.98
2022-12-14T04:45:23.689Z,15.57
2022-12-14T04:48:08.087Z,14.15
2022-12-14T04:50:45.161Z,15.32
2022-12-14T04:53:24.074Z,15.35
2022-12-14T04:56:13.511Z,15.05
2022-12-14T04:58:42.080Z,14.55
2022-12-14T05:01:22.845Z,14.70
2022-12-14T05:04:25.366Z,15.45
2022-12-14T05:07:15.598Z,15.67
2022-12-14T05:09:59.679Z,14.52
2022-12-14T05:12:55.326Z,14.15
2022-12-14T05:15:30.803Z,14.20
2022-12-14T05:18:05.619Z,14.48
2022-12-14T05:20:32.819Z,15.10
2022-12-14T05:22:59.767Z,14.60
2022-12-14T05:25:28.070Z,13.60
2022-12-14T05:27:54.890Z,15.75
2022-12-14T05:30:23.962Z,14.63
2022-12-14T05:32:50.994Z,15.20
2022-12-14T05:35:17.950Z,14.80
2022-12-14T05:37:45.067Z,14.68
2022-12-14T05:40:12.542Z,14.05
2022-12-14T05:42:44.352Z,14.20
2022-12-14T05:45:13.405Z,15.20
2022-12-14T05:47:41.487Z,15.38
2022-12-14T05:50:08.954Z,14.25
2022-12-14T05:52:35.867Z,14.90
2022-12-14T05:55:04.783Z,15.32
2022-12-14T05:57:32.246Z,15.30
2022-12-14T05:59:59.144Z,14.18
2022-12-14T06:02:26.150Z,14.77
2022-12-14T06:04:54.312Z,14.00
2022-12-14T06:07:26.017Z,14.50
2022-12-14T06:09:54.773Z,14.52
2022-12-14T06:12:22.975Z,14.43
2022-12-14T06:14:51.057Z,14.25
2022-12-14T06:17:20.091Z,13.82
2022-12-14T06:19:50.546Z,14.02
2022-12-14T06:22:18.454Z,13.02
2022-12-14T06:24:47.227Z,14.23
2022-12-14T06:27:14.078Z,14.38
2022-12-14T06:29:40.822Z,13.40
2022-12-14T06:32:07.673Z,13.82
2022-12-14T06:34:39.150Z,13.27
2022-12-14T06:37:07.625Z,13.70
2022-12-14T06:39:34.444Z,13.75
2022-12-14T06:42:01.898Z,14.10
2022-12-14T06:44:29.614Z,14.30
2022-12-14T06:46:56.709Z,12.13
2022-12-14T06:49:24.237Z,14.63
2022-12-14T06:51:51.392Z,13.82
2022-12-14T06:54:19.186Z,13.93
2022-12-14T06:56:47.356Z,17.33
2022-12-14T06:59:15.315Z,13.95
2022-12-14T07:01:45.235Z,14.50
2022-12-14T07:04:12.285Z,14.02
2022-12-14T07:06:40.946Z,13.15
2022-12-14T07:09:11.779Z,13.95
2022-12-14T07:11:38.660Z,13.38
2022-12-14T07:14:07.716Z,13.65
2022-12-14T07:16:36.953Z,14.68
2022-12-14T07:19:05.184Z,13.93
2022-12-14T07:21:33.173Z,13.95
2022-12-14T07:24:01.208Z,13.52
2022-12-14T07:26:28.732Z,14.55
2022-12-14T07:28:55.551Z,15.18
2022-12-14T07:31:27.504Z,15.43
2022-12-14T07:33:56.744Z,15.90
2022-12-14T07:36:28.974Z,16.45
2022-12-14T07:38:56.477Z,17.60
2022-12-14T07:41:30.668Z,17.02
2022-12-14T07:43:59.268Z,17.40
2022-12-14T07:46:28.816Z,17.85
2022-12-14T07:48:59.800Z,18.05
2022-12-14T07:51:33.345Z,18.08
2022-12-14T07:54:02.086Z,17.67
2022-12-14T07:56:31.876Z,17.65
2022-12-14T07:58:59.885Z,17.77
2022-12-14T08:01:29.984Z,18.55
2022-12-14T08:04:05.139Z,18.55
2022-12-14T08:06:33.007Z,19.20
2022-12-14T08:09:00.881Z,19.90
2022-12-14T08:11:29.420Z,19.05
2022-12-14T08:14:03.261Z,18.00
2022-12-14T08:16:31.986Z,19.35
2022-12-14T08:19:00.977Z,18.65
2022-12-14T08:21:29.508Z,18.45
2022-12-14T08:23:59.295Z,18.92
2022-12-14T08:26:33.305Z,18.80
2022-12-14T08:29:03.362Z,18.90
2022-12-14T08:31:30.727Z,18.88
2022-12-14T08:34:01.781Z,18.88
2022-12-14T08:36:31.121Z,19.58
2022-12-14T08:39:06.618Z,18.73
2022-12-14T08:41:34.577Z,18.13
2022-12-14T08:44:03.056Z,19.15
2022-12-14T08:46:31.903Z,19.13
2022-12-14T08:48:59.351Z,17.80
2022-12-14T08:51:29.037Z,18.73
2022-12-14T08:53:57.034Z,17.15
2022-12-14T08:56:27.679Z,17.85
2022-12-14T08:58:55.322Z,17.95
2022-12-14T09:01:34.074Z,18.90
2022-12-14T09:04:06.284Z,17.77
2022-12-14T09:06:35.559Z,16.87
2022-12-14T09:09:02.817Z,17.83
2022-12-14T09:11:29.773Z,17.83
2022-12-14T09:13:58.242Z,17.52
2022-12-14T09:16:29.108Z,18.85
2022-12-14T09:18:56.491Z,17.88
2022-12-14T09:21:24.178Z,18.63
2022-12-14T09:23:59.329Z,17.75
2022-12-14T09:26:29.939Z,17.58
2022-12-14T09:28:58.332Z,18.15
2022-12-14T09:31:27.680Z,17.27
2022-12-14T09:33:55.094Z,17.33
2022-12-14T09:36:25.047Z,18.63
2022-12-14T09:38:55.185Z,17.33
2022-12-14T09:41:36.381Z,18.30
2022-12-14T09:44:19.157Z,17.70
2022-12-14T09:47:01.092Z,18.42
2022-12-14T09:49:42.591Z,17.80
2022-12-14T09:52:16.053Z,18.73
2022-12-14T09:54:44.958Z,17.85
2022-12-14T09:57:36.733Z,17.25
2022-12-14T10:00:06.989Z,14.38
2022-12-14T10:03:04.513Z,14.55
2022-12-14T10:06:21.285Z,14.27
2022-12-14T10:09:37.008Z,14.82
2022-12-14T10:12:21.629Z,14.10
2022-12-14T10:14:56.797Z,14.65
2022-12-14T10:17:33.046Z,15.77
2022-12-14T10:20:28.250Z,15.35
2022-12-14T10:22:57.502Z,14.85
2022-12-14T10:25:30.949Z,15.77
2022-12-14T10:28:12.052Z,15.40
2022-12-14T10:30:42.203Z,15.65
2022-12-14T10:33:29.682Z,16.23
2022-12-14T10:36:33.033Z,15.77
2022-12-14T10:41:43.836Z,15.02
2022-12-14T10:45:09.648Z,15.30
2022-12-14T10:47:54.709Z,16.02
2022-12-14T10:51:04.850Z,16.90
2022-12-14T10:53:41.154Z,17.23
2022-12-14T10:56:19.129Z,16.95
2022-12-14T10:59:21.987Z,18.23
2022-12-14T11:01:54.199Z,17.83
2022-12-14T11:04:46.539Z,18.35
2022-12-14T11:07:36.447Z,18.47
2022-12-14T11:10:21.831Z,19.17
2022-12-14T11:13:18.317Z,19.15
2022-12-14T11:15:54.353Z,18.52
2022-12-14T11:18:34.565Z,18.30
2022-12-14T11:21:05.430Z,18.42
2022-12-14T11:23:49.258Z,22.65
2022-12-14T11:26:26.115Z,18.80
2022-12-14T11:28:54.649Z,19.20
2022-12-14T11:31:32.821Z,18.50
2022-12-14T11:34:01.925Z,17.55
2022-12-14T11:39:26.465Z,17.83
2022-12-14T11:42:03.529Z,17.58
2022-12-14T11:44:36.868Z,19.13
2022-12-14T11:47:16.537Z,18.20
2022-12-14T11:49:50.085Z,19.73
2022-12-14T11:52:23.043Z,20.63
2022-12-14T11:54:52.563Z,19.55
2022-12-14T11:57:23.600Z,19.13
2022-12-14T12:00:07.158Z,19.17
2022-12-14T12:02:35.711Z,21.48
2022-12-14T12:05:07.856Z,20.77
2022-12-14T12:07:40.506Z,22.13
2022-12-14T12:10:17.275Z,20.38
2022-12-14T12:12:59.686Z,21.60
2022-12-14T12:15:41.655Z,22.15
2022-12-14T12:18:20.291Z,23.02
2022-12-14T12:21:08.380Z,22.17
2022-12-14T12:23:56.251Z,23.05
2022-12-14T12:26:28.829Z,22.15
2022-12-14T12:32:09.409Z,21.95
2022-12-14T12:35:26.761Z,21.58
2022-12-14T12:37:58.788Z,22.05
2022-12-14T12:40:38.424Z,22.00
2022-12-14T12:43:30.141Z,22.75
2022-12-14T12:46:11.677Z,22.10
2022-12-14T12:48:53.598Z,22.02
2022-12-14T12:51:28.505Z,21.90
2022-12-14T12:54:21.552Z,22.25
2022-12-14T12:56:55.950Z,24.50
2022-12-14T12:59:45.082Z,27.83
2022-12-14T13:02:34.725Z,22.83
2022-12-14T13:05:44.458Z,22.52
2022-12-14T13:08:14.033Z,21.67
2022-12-14T13:11:02.456Z,20.30
2022-12-14T13:13:34.872Z,20.35
2022-12-14T13:16:24.705Z,20.88
2022-12-14T13:19:18.932Z,19.60
2022-12-14T13:21:52.148Z,19.02
2022-12-14T13:24:21.697Z,18.98
2022-12-14T13:26:58.524Z,18.02
2022-12-14T13:29:44.769Z,19.85
2022-12-14T13:32:37.455Z,19.05
2022-12-14T13:38:02.073Z,18.67
2022-12-14T13:40:44.975Z,20.40
2022-12-14T13:43:35.601Z,20.70
2022-12-14T13:46:15.056Z,21.25
2022-12-14T13:48:44.141Z,20.60
2022-12-14T13:51:30.903Z,20.92
2022-12-14T13:53:59.665Z,21.38
2022-12-14T13:56:33.268Z,21.95
2022-12-14T13:59:03.364Z,22.52
2022-12-14T14:01:48.780Z,23.00
2022-12-14T14:04:21.764Z,23.67
2022-12-14T14:06:50.773Z,23.05
2022-12-14T14:09:34.134Z,28.17
2022-12-14T14:12:25.097Z,27.30
2022-12-14T14:15:02.413Z,26.67
2022-12-14T14:17:42.825Z,27.33
2022-12-14T14:20:30.393Z,27.67
2022-12-14T14:23:16.610Z,27.00
2022-12-14T14:26:22.488Z,27.75
2022-12-14T14:29:25.775Z,27.42
2022-12-14T14:34:41.644Z,26.27
2022-12-14T14:37:16.421Z,28.77
2022-12-14T14:39:59.010Z,26.85
2022-12-14T14:42:32.598Z,29.30
2022-12-14T14:45:02.937Z,27.83
2022-12-14T14:47:36.967Z,27.63
2022-12-14T14:50:13.687Z,27.95
2022-12-14T14:52:42.158Z,27.02
2022-12-14T14:55:51.953Z,27.17
2022-12-14T14:58:37.646Z,27.67
2022-12-14T15:01:06.255Z,24.98
2022-12-14T15:04:01.346Z,26.50
2022-12-14T15:06:53.750Z,24.90
2022-12-14T15:09:31.889Z,27.05
2022-12-14T15:12:36.902Z,23.73
2022-12-14T15:15:34.811Z,22.60
2022-12-14T15:18:34.600Z,22.50
2022-12-14T15:21:07.937Z,23.42
2022-12-14T15:23:42.537Z,24.13
2022-12-14T15:26:18.626Z,26.98
2022-12-14T15:28:54.829Z,26.52
2022-12-14T15:31:31.377Z,27.35
2022-12-14T15:34:00.225Z,27.00
2022-12-14T15:36:34.508Z,26.30
2022-12-14T15:39:01.718Z,26.80
2022-12-14T15:41:32.324Z,26.23
2022-12-14T15:44:02.260Z,25.45
2022-12-14T15:46:34.898Z,24.77
2022-12-14T15:51:39.917Z,22.50
2022-12-14T15:54:13.564Z,24.17
2022-12-14T15:56:53.527Z,23.60
2022-12-14T15:59:35.067Z,23.05
2022-12-14T16:02:20.502Z,23.83
2022-12-14T16:04:47.973Z,23.13
2022-12-14T16:07:38.625Z,21.52
2022-12-14T16:10:29.341Z,22.63
2022-12-14T16:13:04.232Z,21.27
2022-12-14T16:15:38.695Z,21.58
2022-12-14T16:18:05.886Z,19.30
2022-12-14T16:20:36.087Z,20.13
2022-12-14T16:23:14.506Z,19.48
2022-12-14T16:26:02.846Z,18.30
2022-12-14T16:28:37.477Z,18.45
2022-12-14T16:31:13.299Z,18.08
2022-12-14T16:33:42.216Z,19.30
2022-12-14T16:36:20.506Z,20.25
2022-12-14T16:39:15.480Z,21.65
2022-12-14T16:42:04.506Z,23.58
2022-12-14T16:44:34.175Z,21.65
2022-12-14T16:47:00.990Z,18.05
2022-12-14T16:49:39.685Z,25.45
2022-12-14T16:52:10.013Z,29.20
2022-12-14T16:54:39.168Z,22.88
2022-12-14T16:57:18.317Z,21.48
2022-12-14T16:59:48.134Z,27.85
2022-12-14T17:02:30.242Z,21.55
2022-12-14T17:05:01.632Z,22.77
2022-12-14T17:07:31.313Z,23.27
2022-12-14T17:09:58.113Z,23.98
2022-12-14T17:12:26.225Z,21.00
2022-12-14T17:14:54.293Z,25.77
2022-12-14T17:17:31.898Z,21.33
2022-12-14T17:19:59.211Z,24.13
2022-12-14T17:22:31.832Z,21.83
2022-12-14T17:25:00.478Z,22.23
2022-12-14T17:27:29.116Z,22.08
2022-12-14T17:29:57.431Z,21.13
2022-12-14T17:32:28.971Z,20.75
2022-12-14T17:34:56.309Z,21.75
2022-12-14T17:37:25.044Z,20.75
2022-12-14T17:39:51.985Z,21.27
2022-12-14T17:42:21.743Z,20.45
2022-12-14T17:45:17.689Z,20.10
2022-12-14T17:47:44.648Z,20.65
2022-12-14T17:50:18.304Z,20.55
2022-12-14T17:52:47.686Z,21.30
2022-12-14T17:55:20.457Z,20.63
2022-12-14T17:57:50.204Z,20.58
2022-12-14T18:00:44.267Z,20.67
2022-12-14T18:03:13.499Z,21.02
2022-12-14T18:05:48.039Z,20.95
2022-12-14T18:08:17.502Z,21.63
2022-12-14T18:10:45.105Z,20.45
2022-12-14T18:13:15.591Z,20.10
2022-12-14T18:15:50.149Z,21.10
2022-12-14T18:18:25.594Z,22.20
2022-12-14T18:21:03.625Z,20.48
2022-12-14T18:23:32.248Z,21.25
2022-12-14T18:26:02.761Z,20.25
2022-12-14T18:28:30.032Z,22.05
2022-12-14T18:31:02.360Z,21.08
2022-12-14T18:33:29.894Z,20.05
2022-12-14T18:35:57.400Z,21.30
2022-12-14T18:38:25.200Z,22.20
2022-12-14T18:40:54.808Z,22.75
2022-12-14T18:43:25.728Z,23.33
2022-12-14T18:45:55.843Z,23.05
2022-12-14T18:48:25.108Z,21.52
2022-12-14T18:50:54.874Z,20.25
2022-12-14T18:53:25.419Z,21.73
2022-12-14T18:55:55.908Z,21.92
2022-12-14T18:58:28.545Z,19.83
2022-12-14T19:03:25.021Z,20.13
2022-12-14T19:06:26.688Z,23.63
2022-12-14T19:08:51.057Z,21.50
2022-12-14T19:11:40.324Z,21.90
2022-12-14T19:14:07.571Z,21.85
2022-12-14T19:16:34.579Z,21.25
2022-12-14T19:19:02.893Z,20.80
2022-12-14T19:21:31.153Z,20.83
2022-12-14T19:23:59.514Z,20.83
2022-12-14T19:26:29.006Z,20.25
2022-12-14T19:28:56.156Z,18.95
2022-12-14T19:31:23.384Z,20.83
2022-12-14T19:33:52.089Z,21.08
2022-12-14T19:36:25.665Z,20.70
2022-12-14T19:38:52.616Z,21.13
2022-12-14T19:41:21.495Z,21.73
2022-12-14T19:43:48.761Z,21.58
2022-12-14T19:46:16.350Z,21.45
2022-12-14T19:48:44.917Z,20.65
2022-12-14T19:51:13.292Z,18.92
2022-12-14T19:53:42.643Z,21.33
2022-12-14T19:56:10.285Z,20.48
2022-12-14T19:58:37.450Z,21.73
2022-12-14T20:01:12.441Z,21.42
2022-12-14T20:03:40.367Z,21.05
2022-12-14T20:06:08.314Z,23.00
2022-12-14T20:08:36.002Z,22.65
2022-12-14T20:11:08.033Z,23.92
2022-12-14T20:13:35.260Z,23.77
2022-12-14T20:16:02.555Z,24.73
2022-12-14T20:18:32.600Z,24.13
2022-12-14T20:21:26.805Z,25.20
2022-12-14T20:23:57.496Z,26.23
2022-12-14T20:26:26.004Z,26.65
2022-12-14T20:28:56.006Z,26.90
2022-12-14T20:31:23.433Z,27.02
2022-12-14T20:33:52.028Z,27.52
2022-12-14T20:36:19.795Z,28.25
2022-12-14T20:38:49.311Z,28.67
2022-12-14T20:41:17.482Z,29.00
2022-12-14T20:43:45.430Z,32.08
2022-12-14T20:46:37.789Z,31.30
2022-12-14T20:49:11.996Z,24.67
2022-12-14T20:51:39.489Z,28.83
2022-12-14T20:54:10.769Z,26.00
2022-12-14T20:56:38.182Z,27.98
2022-12-14T20:59:06.120Z,27.40
2022-12-14T21:01:37.319Z,27.00
2022-12-14T21:04:04.963Z,25.95
2022-12-14T21:06:38.827Z,27.38
2022-12-14T21:09:09.513Z,27.55
2022-12-14T21:12:04.202Z,27.88
2022-12-14T21:14:42.680Z,28.10
2022-12-14T21:17:11.104Z,26.88
2022-12-14T21:19:39.840Z,27.98
2022-12-14T21:22:10.059Z,28.92
2022-12-14T21:25:01.758Z,27.27
2022-12-14T21:27:28.430Z,26.85
2022-12-14T21:29:55.310Z,25.80
2022-12-14T21:32:22.783Z,27.35
2022-12-14T21:34:49.936Z,28.83
2022-12-14T21:37:17.484Z,27.48
2022-12-14T21:39:52.309Z,28.05
2022-12-14T21:42:23.030Z,25.58
2022-12-14T21:44:52.570Z,22.65
2022-12-14T21:47:25.668Z,24.55
2022-12-14T21:49:53.083Z,25.58
2022-12-14T21:52:24.310Z,25.02
2022-12-14T21:54:51.625Z,24.70
2022-12-14T21:57:40.310Z,26.20
2022-12-14T22:00:09.909Z,27.15
2022-12-14T22:02:41.981Z,25.63
2022-12-14T22:05:10.494Z,27.02
2022-12-14T22:07:37.338Z,26.80
2022-12-14T22:10:04.644Z,26.40
2022-12-14T22:12:31.694Z,27.40
2022-12-14T22:14:58.555Z,29.65
2022-12-14T22:17:26.530Z,30.88
2022-12-14T22:19:55.074Z,28.38
2022-12-14T22:22:21.978Z,29.25
2022-12-14T22:24:51.264Z,29.90
2022-12-14T22:27:18.694Z,29.60
2022-12-14T22:29:45.599Z,30.77
2022-12-14T22:32:13.372Z,29.90
2022-12-14T22:34:40.425Z,31.40
2022-12-14T22:37:07.432Z,31.15
2022-12-14T22:39:34.391Z,32.33
2022-12-14T22:42:02.483Z,33.08
2022-12-14T22:44:29.453Z,32.15
2022-12-14T22:46:59.866Z,31.35
2022-12-14T22:49:26.744Z,32.55
2022-12-14T22:51:53.683Z,32.47
2022-12-14T22:54:26.867Z,32.63
2022-12-14T22:57:02.733Z,31.17
2022-12-14T22:59:42.092Z,31.02
2022-12-14T23:02:09.354Z,30.75
2022-12-14T23:04:38.448Z,30.60
2022-12-14T23:07:05.692Z,31.33
2022-12-14T23:09:51.528Z,31.77
2022-12-14T23:12:37.150Z,30.38
2022-12-14T23:15:23.234Z,29.63
2022-12-14T23:18:08.712Z,29.20
2022-12-14T23:20:57.841Z,29.88
2022-12-14T23:23:45.519Z,29.33
2022-12-14T23:26:31.140Z,29.35
2022-12-14T23:29:19.803Z,29.88
2022-12-14T23:32:05.195Z,29.52
2022-12-14T23:34:51.466Z,31.17
2022-12-14T23:37:37.124Z,31.88
2022-12-14T23:40:23.200Z,31.20
2022-12-14T23:43:08.682Z,33.10
2022-12-14T23:45:54.124Z,32.25
2022-12-14T23:48:39.535Z,31.75
2022-12-14T23:51:25.719Z,33.70
2022-12-14T23:54:12.169Z,33.83
2022-12-14T23:56:57.803Z,33.20
2022-12-14T23:59:43.340Z,33.80
